DNKN/KAN METAR and TAF weather

Enter ICAO airport designator
Station Type Date Time Source
DNKN METAR 2020/01/21 18:00 UTC NOAA

DNKN 211800Z 05005KT 3000 HZ 24/08 Q1017 NOSIG


Station Type Date Time Source
DNKN Decoded METAR 2020/01/21 18:00 UTC NOAA

Kano, Nigeria (DNKN) 12-03N 008-32E 481M
Jan 21, 2020 - 01:00 PM EST / 2020.01.21 1800 UTC
Wind: from the NE (050 degrees) at 6 MPH (5 KT):0
Visibility: 1 mile(s):0
Weather: haze
Temperature: 75 F (24 C)
Dew Point: 46 F (8 C)
Relative Humidity: 35%
Pressure (altimeter): 30.03 in. Hg (1017 hPa)
ob: DNKN 211800Z 05005KT 3000 HZ 24/08 Q1017 NOSIG
cycle: 18

Station Type Date Time Source
DNKN TAF 2020/01/21 18:58 UTC NOAA

TAF DNKN 211700Z 2118/2224 08010KT 5000 HZ NSC
TEMPO 2207/2212 0800 DU

Example: see airport list